Time;durP1;ratioP1;P1;durP2;ratioP2;P2;SDS_P1;SDS_P2;PMS_P1;PMS_P2;Temp;Humidity;BMP_temperature;BMP_pressure;BME280_temperature;BME280_humidity;BME280_pressure;Samples;Min_cycle;Max_cycle;Signal;HPM_P1;HPM_P2
2021/09/13 00:01:17;;;;;;;;;;;;;;;22.12;30.05;97669.91;4907177;29;1390;-80
2021/09/13 00:03:43;;;;;;;;;;;;;;;22.16;30.13;97676.25;4908323;29;659;-80
2021/09/13 00:06:08;;;;;;;;;;;;;;;21.95;30.46;97671.28;4908225;29;680;-80
2021/09/13 00:08:34;;;;;;;;;;;;;;;22.10;30.14;97666.72;4907968;29;1895;-80
2021/09/13 00:10:59;;;;;;;;;;;;;;;22.25;30.07;97667.84;4907906;29;971;-80
2021/09/13 00:13:25;;;;;;;;;;;;;;;22.13;30.13;97670.72;4906898;29;1870;-80
2021/09/13 00:15:51;;;;;;;;;;;;;;;22.03;30.45;97672.63;4907242;29;949;-80
2021/09/13 00:18:18;;;;;;;;;;;;;;;22.10;30.04;97678.03;4907273;29;901;-80
2021/09/13 00:20:43;;;;;;;;;;;;;;;22.12;30.32;97669.91;4907364;29;695;-80
2021/09/13 00:23:09;;;;;;;;;;;;;;;22.11;30.35;97671.16;4907055;29;1429;-79
2021/09/13 00:25:35;;;;;;;;;;;;;;;22.12;30.42;97675.56;4906799;29;1002;-80
2021/09/13 00:28:01;;;;;;;;;;;;;;;22.18;30.07;97667.31;4907507;29;1956;-80
2021/09/13 00:30:27;;;;;;;;;;;;;;;22.06;30.45;97671.69;4907663;29;867;-80
2021/09/13 00:32:52;;;;;;;;;;;;;;;22.01;30.84;97667.41;4906952;29;1351;-80
2021/09/13 00:35:18;;;;;;;;;;;;;;;21.92;31.02;97663.69;4907632;29;650;-80
2021/09/13 00:37:46;;;;;;;;;;;;;;;22.08;30.49;97669.22;4907492;29;1389;-80
2021/09/13 00:40:28;;;;;;;;;;;;;;;22.07;30.52;97664.78;4906530;29;892;-80
2021/09/13 00:42:56;;;;;;;;;;;;;;;22.06;30.69;97664.00;4906313;29;1343;-79
2021/09/13 00:45:21;;;;;;;;;;;;;;;21.98;30.63;97665.50;4907182;29;1100;-80
2021/09/13 00:47:47;;;;;;;;;;;;;;;22.20;30.52;97665.59;4922318;29;1906;-80
2021/09/13 00:50:12;;;;;;;;;;;;;;;22.15;30.50;97660.50;4907481;29;687;-80
2021/09/13 00:52:37;;;;;;;;;;;;;;;22.26;30.49;97657.28;4906448;29;1396;-80
2021/09/13 00:55:03;;;;;;;;;;;;;;;22.00;30.89;97662.19;4906283;29;1334;-81
2021/09/13 00:57:29;;;;;;;;;;;;;;;22.00;30.85;97662.19;4890881;29;1346;-80
2021/09/13 00:59:56;;;;;;;;;;;;;;;22.03;30.66;97666.97;4906625;29;1057;-80
2021/09/13 01:02:22;;;;;;;;;;;;;;;22.10;30.48;97661.03;4906425;29;653;-80
2021/09/13 01:04:47;;;;;;;;;;;;;;;22.17;30.67;97658.00;4906395;29;1398;-80
2021/09/13 01:07:13;;;;;;;;;;;;;;;22.26;30.37;97660.91;4907150;29;1959;-80
2021/09/13 01:09:38;;;;;;;;;;;;;;;22.15;30.78;97657.66;4906039;29;951;-81
2021/09/13 01:12:04;;;;;;;;;;;;;;;22.25;30.27;97662.16;4906916;29;880;-80
2021/09/13 01:14:36;;;;;;;;;;;;;;;22.36;30.33;97665.41;4890574;29;1359;-81
2021/09/13 01:17:05;;;;;;;;;;;;;;;22.24;30.21;97657.75;4906449;29;636;-80
2021/09/13 01:19:31;;;;;;;;;;;;;;;22.21;30.65;97660.72;4906587;29;1179;-80
2021/09/13 01:21:58;;;;;;;;;;;;;;;22.14;30.47;97667.41;4890410;29;1157;-80
2021/09/13 01:24:24;;;;;;;;;;;;;;;22.14;30.85;97664.59;4890384;29;1381;-80
2021/09/13 01:26:49;;;;;;;;;;;;;;;22.18;30.37;97667.31;4890595;29;1923;-80
2021/09/13 01:29:20;;;;;;;;;;;;;;;22.17;30.41;97666.50;4906321;29;1399;-80
2021/09/13 01:31:45;;;;;;;;;;;;;;;22.05;30.85;97667.28;4906067;29;628;-80
2021/09/13 01:34:11;;;;;;;;;;;;;;;22.08;30.64;97669.22;4906090;29;1205;-80
2021/09/13 01:36:39;;;;;;;;;;;;;;;22.10;30.98;97666.72;4905962;29;1476;-81
2021/09/13 01:39:09;;;;;;;;;;;;;;;22.09;30.61;97670.81;4905901;29;1229;-80
2021/09/13 01:41:34;;;;;;;;;;;;;;;22.22;30.52;97677.25;4905117;29;1457;-80
2021/09/13 01:44:04;;;;;;;;;;;;;;;22.16;30.95;97667.75;4905730;29;1326;-80
2021/09/13 01:46:30;;;;;;;;;;;;;;;22.08;31.05;97674.88;4905746;29;1911;-80
2021/09/13 01:48:55;;;;;;;;;;;;;;;22.32;30.32;97673.25;4905684;29;658;-80
2021/09/13 01:51:21;;;;;;;;;;;;;;;22.32;30.40;97673.25;4906035;29;1166;-80
2021/09/13 01:53:48;;;;;;;;;;;;;;;22.13;30.73;97670.72;4904779;29;1425;-80
2021/09/13 01:56:14;;;;;;;;;;;;;;;22.09;30.81;97677.25;4905425;29;871;-80
2021/09/13 01:58:39;;;;;;;;;;;;;;;22.08;30.92;97674.88;4889451;29;1154;-80
2021/09/13 02:01:05;;;;;;;;;;;;;;;22.23;30.46;97680.91;4905505;29;1394;-80
2021/09/13 02:03:35;;;;;;;;;;;;;;;22.28;30.70;97678.28;4905369;29;1185;-80
2021/09/13 02:06:02;;;;;;;;;;;;;;;22.23;30.53;97681.69;4905525;29;1560;-80
2021/09/13 02:08:28;;;;;;;;;;;;;;;22.16;30.69;97675.44;4905573;29;1971;-81
2021/09/13 02:10:57;;;;;;;;;;;;;;;22.20;30.79;97676.91;4904889;29;1390;-80
2021/09/13 02:13:23;;;;;;;;;;;;;;;22.18;30.81;97673.75;4905924;29;969;-81
2021/09/13 02:15:48;;;;;;;;;;;;;;;22.26;30.72;97674.28;4890016;29;1255;-80
2021/09/13 02:18:19;;;;;;;;;;;;;;;22.16;30.71;97670.56;4905959;29;765;-80
2021/09/13 02:20:51;;;;;;;;;;;;;;;22.22;30.63;97680.06;4904902;29;1457;-80
2021/09/13 02:23:16;;;;;;;;;;;;;;;22.27;30.85;97676.66;4904801;29;1129;-80
2021/09/13 02:25:42;;;;;;;;;;;;;;;22.21;30.76;97672.84;4889421;29;1139;-81
2021/09/13 02:28:09;;;;;;;;;;;;;;;22.16;30.63;97670.56;4889797;29;1986;-80
2021/09/13 02:30:35;;;;;;;;;;;;;;;22.10;30.67;97672.38;4905200;29;1272;-80
2021/09/13 02:33:01;;;;;;;;;;;;;;;22.19;30.72;97675.34;4904824;29;1470;-80
2021/09/13 02:35:32;;;;;;;;;;;;;;;22.16;30.87;97670.56;4904837;29;1393;-80
2021/09/13 02:37:58;;;;;;;;;;;;;;;22.22;30.56;97674.41;4889702;29;1134;-80
2021/09/13 02:40:31;;;;;;;;;;;;;;;22.24;30.25;97671.13;4888965;29;1187;-80
2021/09/13 02:42:56;;;;;;;;;;;;;;;22.23;30.63;97681.69;4903457;29;1360;-80
2021/09/13 02:45:22;;;;;;;;;;;;;;;22.33;30.50;97677.69;4904708;29;1208;-80
2021/09/13 02:47:47;;;;;;;;;;;;;;;22.21;30.43;97672.03;4889269;29;1907;-80
2021/09/13 02:50:15;;;;;;;;;;;;;;;22.27;30.55;97685.16;4904970;29;1333;-80
2021/09/13 02:52:40;;;;;;;;;;;;;;;22.35;30.52;97666.69;4888677;29;1453;-80
2021/09/13 02:55:07;;;;;;;;;;;;;;;22.26;30.33;97668.63;4904421;29;1195;-80
2021/09/13 02:57:32;;;;;;;;;;;;;;;22.21;30.34;97674.88;4905060;29;1247;-80
2021/09/13 02:59:58;;;;;;;;;;;;;;;22.24;30.25;97682.47;4889119;29;1450;-80
2021/09/13 03:02:23;;;;;;;;;;;;;;;22.18;30.72;97672.97;4904465;29;684;-80
2021/09/13 03:04:49;;;;;;;;;;;;;;;22.40;30.41;97676.66;4888727;29;1311;-80
2021/09/13 03:07:15;;;;;;;;;;;;;;;22.20;30.27;97676.91;4904724;29;1898;-79
2021/09/13 03:09:40;;;;;;;;;;;;;;;22.21;30.74;97678.50;4904585;29;932;-80
2021/09/13 03:12:07;;;;;;;;;;;;;;;22.17;30.69;97675.00;4888980;29;1284;-80
2021/09/13 03:14:33;;;;;;;;;;;;;;;22.35;30.33;97677.22;4888918;29;1849;-80
2021/09/13 03:16:59;;;;;;;;;;;;;;;22.22;30.40;97684.97;4904920;29;695;-80
2021/09/13 03:19:24;;;;;;;;;;;;;;;22.08;30.63;97686.22;4904521;29;1244;-80
2021/09/13 03:21:50;;;;;;;;;;;;;;;22.20;30.90;97688.25;4888631;29;1316;-80
2021/09/13 03:24:16;;;;;;;;;;;;;;;22.14;30.99;97684.41;4903655;29;1366;-80
2021/09/13 03:26:42;;;;;;;;;;;;;;;22.02;31.02;97688.03;4888788;29;1964;-80
2021/09/13 03:29:08;;;;;;;;;;;;;;;22.21;30.65;97689.84;4904207;29;616;-79
2021/09/13 03:31:35;;;;;;;;;;;;;;;22.23;30.60;97687.34;4904388;29;1340;-80
2021/09/13 03:34:01;;;;;;;;;;;;;;;22.25;30.50;97684.84;4904593;29;1165;-80
2021/09/13 03:36:26;;;;;;;;;;;;;;;22.12;30.86;97691.78;4903265;29;1401;-79
2021/09/13 03:38:52;;;;;;;;;;;;;;;22.22;30.54;97696.28;4888037;29;1327;-80
2021/09/13 03:41:18;;;;;;;;;;;;;;;21.93;30.99;97690.78;4904405;29;1145;-80
2021/09/13 03:43:44;;;;;;;;;;;;;;;22.20;30.33;97696.75;4903945;29;1299;-80
2021/09/13 03:46:10;;;;;;;;;;;;;;;22.39;30.31;97686.41;4903720;29;1394;-79
2021/09/13 03:48:49;;;;;;;;;;;;;;;22.19;30.33;97692.34;4903892;29;1216;-80
2021/09/13 03:51:15;;;;;;;;;;;;;;;22.23;30.39;97715.69;4903902;29;1181;-81
2021/09/13 03:53:40;;;;;;;;;;;;;;;22.29;30.47;97696.84;4904671;29;913;-80
2021/09/13 03:56:08;;;;;;;;;;;;;;;22.32;30.23;97695.13;4903855;29;1310;-80
2021/09/13 03:58:34;;;;;;;;;;;;;;;22.42;30.15;97696.03;4904043;29;1327;-80
2021/09/13 04:00:59;;;;;;;;;;;;;;;22.33;30.26;97699.56;4903995;29;1192;-80
2021/09/13 04:03:45;;;;;;;;;;;;;;;22.31;30.49;97694.34;4903798;29;1273;-80
2021/09/13 04:06:26;;;;;;;;;;;;;;;22.34;30.29;97687.78;4890869;29;1486;-80
2021/09/13 04:12:13;;;;;;;;;;;;;;;22.37;30.03;97691.72;4884643;29;939;-79
2021/09/13 04:15:01;;;;;;;;;;;;;;;22.28;30.22;97700.94;4885346;29;1206;-80
2021/09/13 04:17:50;;;;;;;;;;;;;;;22.24;30.63;97702.31;4884994;29;1174;-80
2021/09/13 04:20:33;;;;;;;;;;;;;;;22.29;30.48;97702.53;4886141;29;1282;-80
2021/09/13 04:23:17;;;;;;;;;;;;;;;22.28;30.56;97705.81;4888798;29;964;-79
2021/09/13 04:26:07;;;;;;;;;;;;;;;22.26;30.17;97706.25;4888441;29;1422;-79
2021/09/13 04:28:59;;;;;;;;;;;;;;;22.35;30.44;97709.19;4874264;29;1193;-79
2021/09/13 04:31:40;;;;;;;;;;;;;;;22.28;30.31;97705.81;4888958;29;718;-79
2021/09/13 04:34:29;;;;;;;;;;;;;;;22.15;30.33;97714.34;4888416;29;1363;-80
2021/09/13 04:37:17;;;;;;;;;;;;;;;22.08;30.50;97714.56;4887796;29;1481;-79
2021/09/13 04:40:01;;;;;;;;;;;;;;;22.29;30.36;97715.91;4888352;29;671;-80
2021/09/13 04:43:05;;;;;;;;;;;;;;;22.28;30.51;97712.28;4888149;29;1356;-80
2021/09/13 04:45:49;;;;;;;;;;;;;;;22.34;30.12;97713.28;4888836;29;671;-80
2021/09/13 04:48:34;;;;;;;;;;;;;;;22.41;29.98;97725.63;4878050;29;1912;-80
2021/09/13 04:51:16;;;;;;;;;;;;;;;22.38;29.94;97726.53;4887432;29;1219;-80
2021/09/13 04:54:00;;;;;;;;;;;;;;;22.50;30.13;97717.22;4888516;29;575;-80
2021/09/13 04:56:27;;;;;;;;;;;;;;;22.32;30.13;97707.25;4888077;29;1154;-79
2021/09/13 04:58:53;;;;;;;;;;;;;;;22.27;30.53;97719.19;4872333;29;1230;-80
2021/09/13 05:01:18;;;;;;;;;;;;;;;22.25;30.51;97716.03;4888509;29;644;-80
2021/09/13 05:03:44;;;;;;;;;;;;;;;22.36;30.43;97724.94;4887392;29;918;-79
2021/09/13 05:06:10;;;;;;;;;;;;;;;22.35;30.28;97723.38;4887150;29;939;-79
2021/09/13 05:08:36;;;;;;;;;;;;;;;22.26;30.33;97726.09;4887921;29;1911;-80
2021/09/13 05:11:05;;;;;;;;;;;;;;;22.29;30.27;97725.19;4887813;29;1324;-80
2021/09/13 05:13:32;;;;;;;;;;;;;;;22.22;30.50;97731.09;4872404;29;1187;-80
2021/09/13 05:15:58;;;;;;;;;;;;;;;22.30;30.39;97729.63;4887590;29;1213;-80
2021/09/13 05:18:27;;;;;;;;;;;;;;;22.27;30.34;97726.91;4887278;29;1417;-80
2021/09/13 05:20:52;;;;;;;;;;;;;;;22.40;30.10;97719.16;4887779;29;1113;-79
2021/09/13 05:23:24;;;;;;;;;;;;;;;22.26;30.43;97723.28;4872826;29;1452;-80
2021/09/13 05:25:50;;;;;;;;;;;;;;;22.14;30.92;97724.09;4887482;29;1226;-80
2021/09/13 05:28:15;;;;;;;;;;;;;;;22.27;30.62;97721.22;4887203;29;1972;-80
2021/09/13 05:30:45;;;;;;;;;;;;;;;22.38;30.51;97726.53;4872033;29;1207;-79
2021/09/13 05:33:20;;;;;;;;;;;;;;;22.24;30.71;97725.78;4886814;29;956;-80
2021/09/13 05:35:47;;;;;;;;;;;;;;;22.36;30.63;97730.63;4886941;29;1279;-79
2021/09/13 05:38:13;;;;;;;;;;;;;;;22.31;30.46;97722.69;4887683;29;612;-80
2021/09/13 05:40:40;;;;;;;;;;;;;;;22.33;30.33;97731.56;4887380;29;1461;-79
2021/09/13 05:43:08;;;;;;;;;;;;;;;22.29;30.63;97736.53;4872136;29;1190;-80
2021/09/13 05:45:35;;;;;;;;;;;;;;;22.33;30.28;97731.56;4887529;29;752;-80
2021/09/13 05:48:04;;;;;;;;;;;;;;;22.29;30.57;97728.03;4871338;29;1915;-80
2021/09/13 05:50:36;;;;;;;;;;;;;;;22.50;30.36;97735.00;4872115;29;1239;-81
2021/09/13 05:53:02;;;;;;;;;;;;;;;22.40;30.32;97733.34;4871393;29;1210;-80
2021/09/13 05:55:29;;;;;;;;;;;;;;;22.39;30.52;97730.97;4856816;29;1123;-80
2021/09/13 05:57:58;;;;;;;;;;;;;;;22.42;30.45;97732.88;4886930;29;1218;-80
2021/09/13 06:00:24;;;;;;;;;;;;;;;22.33;30.34;97725.88;4886580;29;668;-79
2021/09/13 06:02:55;;;;;;;;;;;;;;;22.44;30.23;97736.06;4886529;29;1173;-80
2021/09/13 06:05:40;;;;;;;;;;;;;;;22.48;30.29;97729.00;4886354;29;1130;-80
2021/09/13 06:08:06;;;;;;;;;;;;;;;22.36;30.65;97729.81;4886392;29;1965;-79
2021/09/13 06:10:31;;;;;;;;;;;;;;;22.44;30.16;97736.06;4886731;29;1204;-80
2021/09/13 06:12:58;;;;;;;;;;;;;;;22.50;30.36;97734.22;4887130;29;673;-80
2021/09/13 06:15:23;;;;;;;;;;;;;;;22.40;30.24;97741.06;4870919;29;1155;-80
2021/09/13 06:17:49;;;;;;;;;;;;;;;22.30;30.36;97738.13;4870823;29;1171;-80
2021/09/13 06:20:16;;;;;;;;;;;;;;;22.33;30.52;97737.22;4886908;29;978;-79
2021/09/13 06:23:02;;;;;;;;;;;;;;;22.36;30.43;97741.97;4886844;29;708;-79
2021/09/13 06:25:33;;;;;;;;;;;;;;;22.47;30.33;97741.59;4871920;29;1391;-80
2021/09/13 06:27:59;;;;;;;;;;;;;;;22.35;30.34;97743.22;4886525;29;1914;-80
2021/09/13 06:30:43;;;;;;;;;;;;;;;22.34;30.38;97733.13;4886724;29;949;-80
2021/09/13 06:33:08;;;;;;;;;;;;;;;22.46;30.46;97742.84;4870775;29;1029;-79
2021/09/13 06:35:37;;;;;;;;;;;;;;;22.28;30.88;97740.63;4871188;29;1163;-79
2021/09/13 06:38:07;;;;;;;;;;;;;;;22.46;30.58;97750.56;4886373;29;1343;-80
2021/09/13 06:40:35;;;;;;;;;;;;;;;22.46;30.47;97745.69;4886471;29;1193;-78
2021/09/13 06:43:01;;;;;;;;;;;;;;;22.47;30.28;97746.47;4870739;29;1187;-79
2021/09/13 06:45:27;;;;;;;;;;;;;;;22.42;30.37;97745.00;4886362;29;1177;-80
2021/09/13 06:47:52;;;;;;;;;;;;;;;22.32;30.67;97746.94;4870337;29;1903;-80
2021/09/13 06:50:36;;;;;;;;;;;;;;;22.47;30.49;97752.16;4886226;29;1198;-80
2021/09/13 06:53:03;;;;;;;;;;;;;;;22.40;30.66;97752.41;4886386;29;1170;-80
2021/09/13 06:55:28;;;;;;;;;;;;;;;22.48;30.73;97753.72;4886219;29;691;-80
2021/09/13 06:57:54;;;;;;;;;;;;;;;22.57;30.58;97751.78;4885972;29;693;-81
2021/09/13 07:00:19;;;;;;;;;;;;;;;22.34;30.79;97752.97;4885981;29;709;-80
2021/09/13 07:02:45;;;;;;;;;;;;;;;22.45;30.75;97748.97;4885799;29;967;-80
2021/09/13 07:05:11;;;;;;;;;;;;;;;22.54;30.64;97754.75;4870146;29;889;-79
2021/09/13 07:07:36;;;;;;;;;;;;;;;22.55;30.69;97764.84;4886434;29;1896;-80
2021/09/13 07:10:03;;;;;;;;;;;;;;;22.57;30.51;97763.13;4886617;29;678;-80
2021/09/13 07:12:28;;;;;;;;;;;;;;;22.41;30.79;97765.31;4886152;29;1104;-80
2021/09/13 07:14:54;;;;;;;;;;;;;;;22.33;30.55;97761.94;4885913;29;672;-80
2021/09/13 07:17:22;;;;;;;;;;;;;;;22.41;30.82;97765.31;4885623;29;975;-81
2021/09/13 07:19:51;;;;;;;;;;;;;;;22.40;30.46;97760.91;4910734;29;1087;-79
2021/09/13 07:22:17;;;;;;;;;;;;;;;22.42;30.49;97761.22;4905059;29;1287;-79
2021/09/13 07:24:43;;;;;;;;;;;;;;;22.59;30.25;97760.63;4913014;29;1186;-80
2021/09/13 07:27:09;;;;;;;;;;;;;;;22.61;30.07;97748.81;4897422;29;1969;-79
2021/09/13 07:29:35;;;;;;;;;;;;;;;22.50;30.49;97759.75;4903693;29;1222;-80
2021/09/13 07:32:02;;;;;;;;;;;;;;;22.35;30.43;97763.06;4912084;29;1209;-79
2021/09/13 07:34:27;;;;;;;;;;;;;;;22.32;30.78;97758.28;4906986;29;1113;-80
2021/09/13 07:36:55;;;;;;;;;;;;;;;22.33;30.46;97754.22;4913666;29;1237;-78
2021/09/13 07:39:21;;;;;;;;;;;;;;;22.38;30.50;97757.72;4914519;29;1126;-80
2021/09/13 07:41:46;;;;;;;;;;;;;;;22.34;30.25;97750.13;4904624;29;1197;-80
2021/09/13 07:44:12;;;;;;;;;;;;;;;22.43;30.37;97759.97;4903889;29;1272;-80
2021/09/13 07:46:37;;;;;;;;;;;;;;;22.44;30.18;97761.56;4909497;29;1910;-80
2021/09/13 07:49:03;;;;;;;;;;;;;;;22.47;30.23;97763.47;4912110;29;1249;-79
2021/09/13 07:51:28;;;;;;;;;;;;;;;22.31;30.52;97767.25;4904470;29;1162;-80
2021/09/13 07:53:54;;;;;;;;;;;;;;;22.30;30.62;97766.47;4903622;29;1225;-79
2021/09/13 07:56:19;;;;;;;;;;;;;;;22.45;30.17;97766.00;4911558;29;1154;-81
2021/09/13 07:58:45;;;;;;;;;;;;;;;22.40;30.25;97758.06;4908452;29;1129;-80
2021/09/13 08:01:11;;;;;;;;;;;;;;;22.47;30.13;97752.16;4915147;29;1173;-80
2021/09/13 08:03:37;;;;;;;;;;;;;;;22.60;29.79;97761.41;4911887;29;1285;-80
2021/09/13 08:06:02;;;;;;;;;;;;;;;22.47;30.13;97757.81;4907884;29;1304;-80
2021/09/13 08:08:28;;;;;;;;;;;;;;;22.54;29.96;97760.41;4907219;29;1899;-80
2021/09/13 08:10:53;;;;;;;;;;;;;;;22.60;30.07;97750.88;4917826;29;1327;-80
2021/09/13 08:13:20;;;;;;;;;;;;;;;22.42;30.36;97755.56;4916609;29;1185;-80
2021/09/13 08:15:48;;;;;;;;;;;;;;;22.41;30.45;97759.66;4912672;29;1081;-80
2021/09/13 08:18:23;;;;;;;;;;;;;;;22.25;30.30;97764.19;4917006;29;1256;-79
2021/09/13 08:20:48;;;;;;;;;;;;;;;22.40;30.49;97758.84;4913078;29;1131;-80
2021/09/13 08:23:14;;;;;;;;;;;;;;;22.43;30.09;97763.59;4917525;29;1307;-80
2021/09/13 08:25:40;;;;;;;;;;;;;;;22.58;29.75;97763.91;4917035;29;1174;-80
2021/09/13 08:28:25;;;;;;;;;;;;;;;22.47;30.19;97766.31;4904234;29;1975;-80
2021/09/13 08:30:51;;;;;;;;;;;;;;;22.48;30.17;97765.06;4915246;29;1122;-80
2021/09/13 08:33:16;;;;;;;;;;;;;;;22.52;30.11;97762.91;4914492;29;1189;-79
2021/09/13 08:35:42;;;;;;;;;;;;;;;22.34;30.22;97761.47;4914833;29;1411;-80
2021/09/13 08:38:16;;;;;;;;;;;;;;;22.16;30.47;97766.91;4917344;29;1212;-80
2021/09/13 08:40:41;;;;;;;;;;;;;;;22.39;29.92;97762.16;4907549;29;1240;-80
2021/09/13 08:43:08;;;;;;;;;;;;;;;22.36;30.25;97764.63;4912107;29;1158;-79
2021/09/13 08:48:12;;;;;;;;;;;;;;;22.51;29.70;97755.66;4909913;29;1907;-80
2021/09/13 08:53:15;;;;;;;;;;;;;;;22.52;29.94;97760.84;4906826;29;1087;-81
2021/09/13 08:55:40;;;;;;;;;;;;;;;22.35;29.85;97754.56;4906993;29;632;-81
2021/09/13 08:58:06;;;;;;;;;;;;;;;22.26;30.14;97760.13;4906512;29;802;-80
2021/09/13 09:00:32;;;;;;;;;;;;;;;22.44;30.02;97753.06;4906654;29;979;-80
2021/09/13 09:02:57;;;;;;;;;;;;;;;22.40;30.13;97752.41;4906923;29;920;-80
2021/09/13 09:05:26;;;;;;;;;;;;;;;22.41;30.21;97753.97;4907291;29;1069;-81
2021/09/13 09:07:52;;;;;;;;;;;;;;;22.49;29.96;97752.50;4906194;29;1972;-80
2021/09/13 09:10:22;;;;;;;;;;;;;;;22.48;29.73;97760.19;4906504;29;829;-80
2021/09/13 09:12:54;;;;;;;;;;;;;;;22.58;29.71;97752.56;4906792;29;652;-80
2021/09/13 09:15:20;;;;;;;;;;;;;;;22.35;29.84;97739.59;4905807;29;998;-81
2021/09/13 09:17:45;;;;;;;;;;;;;;;22.40;29.95;97747.50;4906204;29;1393;-80
2021/09/13 09:20:11;;;;;;;;;;;;;;;22.44;30.22;97751.03;4905881;29;1282;-80
2021/09/13 09:22:39;;;;;;;;;;;;;;;22.48;30.03;97746.00;4915051;29;1297;-80
2021/09/13 09:25:07;;;;;;;;;;;;;;;22.35;29.91;97748.88;4915672;29;1193;-79
2021/09/13 09:27:51;;;;;;;;;;;;;;;22.38;30.06;97750.00;4907011;29;1907;-80
2021/09/13 09:30:16;;;;;;;;;;;;;;;22.32;30.46;97741.28;4905328;29;881;-80
2021/09/13 09:32:42;;;;;;;;;;;;;;;22.38;30.33;97732.19;4906576;29;848;-79
2021/09/13 09:35:14;;;;;;;;;;;;;;;22.39;30.29;97745.16;4906178;29;645;-80
2021/09/13 09:37:41;;;;;;;;;;;;;;;22.47;29.96;97743.63;4906800;29;680;-81
2021/09/13 09:40:09;;;;;;;;;;;;;;;22.56;29.73;97746.56;4905513;29;931;-80
2021/09/13 09:42:35;;;;;;;;;;;;;;;22.61;29.13;97734.66;4914128;29;1082;-80
2021/09/13 09:45:01;;;;;;;;;;;;;;;22.17;29.73;97733.72;4913716;29;1149;-80
2021/09/13 09:47:27;;;;;;;;;;;;;;;22.29;29.55;97742.22;4913089;29;1911;-78
2021/09/13 09:49:53;;;;;;;;;;;;;;;22.24;29.62;97742.78;4906165;29;1181;-80
2021/09/13 09:52:26;;;;;;;;;;;;;;;22.33;29.27;97747.78;4914984;29;1166;-79
2021/09/13 09:55:19;;;;;;;;;;;;;;;22.35;29.43;97742.41;4911299;29;1165;-79
2021/09/13 09:57:45;;;;;;;;;;;;;;;22.42;29.29;97744.22;4905551;29;1219;-80
2021/09/13 10:00:18;;;;;;;;;;;;;;;22.48;28.71;97742.38;4908384;29;1103;-79
2021/09/13 10:02:43;;;;;;;;;;;;;;;22.39;28.85;97734.59;4914783;29;1319;-79
2021/09/13 10:05:12;;;;;;;;;;;;;;;22.62;28.53;97736.22;4916461;29;1197;-78
2021/09/13 10:07:40;;;;;;;;;;;;;;;22.45;28.57;97737.66;4905932;29;1962;-78
2021/09/13 10:10:07;;;;;;;;;;;;;;;22.43;28.69;97728.78;4914835;29;1249;-78
2021/09/13 10:12:32;;;;;;;;;;;;;;;22.26;28.86;97723.28;4910751;29;1190;-79
2021/09/13 10:14:58;;;;;;;;;;;;;;;22.33;28.68;97736.44;4916140;29;1321;-80
2021/09/13 10:17:23;;;;;;;;;;;;;;;22.32;28.84;97735.59;4907147;29;1202;-80
2021/09/13 10:19:49;;;;;;;;;;;;;;;22.50;28.46;97745.56;4910214;29;1309;-79
2021/09/13 10:22:14;;;;;;;;;;;;;;;22.43;28.60;97728.78;4918054;29;1087;-80
2021/09/13 10:24:40;;;;;;;;;;;;;;;22.34;28.41;97738.78;4914179;29;1188;-80
2021/09/13 10:27:07;;;;;;;;;;;;;;;22.32;28.45;97740.50;4904778;29;1968;-80
2021/09/13 10:29:32;;;;;;;;;;;;;;;22.33;28.38;97731.56;4913567;29;1300;-79
2021/09/13 10:32:05;;;;;;;;;;;;;;;22.23;28.41;97726.25;4914413;29;1178;-80
2021/09/13 10:34:39;;;;;;;;;;;;;;;22.38;28.46;97737.88;4912930;29;1379;-79
2021/09/13 10:37:06;;;;;;;;;;;;;;;22.38;28.22;97726.53;4914395;29;1152;-80
2021/09/13 10:39:53;;;;;;;;;;;;;;;22.30;28.14;97732.44;4905305;29;1363;-80
2021/09/13 10:42:29;;;;;;;;;;;;;;;22.25;28.13;97732.22;4912608;29;1157;-81
2021/09/13 10:45:18;;;;;;;;;;;;;;;22.18;28.43;97736.09;4904119;29;1116;-79
2021/09/13 10:47:44;;;;;;;;;;;;;;;22.30;28.08;97728.81;4906502;29;1899;-81
2021/09/13 10:50:22;;;;;;;;;;;;;;;22.24;28.57;97725.78;4913661;29;1343;-79
2021/09/13 10:52:49;;;;;;;;;;;;;;;22.38;27.93;97732.19;4896668;29;1257;-80
2021/09/13 10:55:24;;;;;;;;;;;;;;;22.34;28.25;97735.16;4910607;29;1226;-81
2021/09/13 10:58:12;;;;;;;;;;;;;;;22.41;28.15;97729.25;4912501;29;1185;-80
2021/09/13 11:00:40;;;;;;;;;;;;;;;22.11;28.50;97719.31;4905406;29;1054;-80
2021/09/13 11:08:44;;;;;;;;;;;;;;;22.56;27.67;97721.06;4916347;29;1934;-80
2021/09/13 11:11:18;;;;;;;;;;;;;;;22.50;27.92;97728.56;4923665;29;716;-80
2021/09/13 11:13:48;;;;;;;;;;;;;;;22.50;27.88;97712.34;4923631;29;640;-80
2021/09/13 11:16:16;;;;;;;;;;;;;;;22.40;27.79;97718.38;4923856;29;886;-80
2021/09/13 11:18:42;;;;;;;;;;;;;;;22.47;27.78;97707.56;4922490;29;1018;-80
2021/09/13 11:21:20;;;;;;;;;;;;;;;22.44;27.61;97719.06;4923489;29;979;-80
2021/09/13 11:23:51;;;;;;;;;;;;;;;22.23;28.09;97714.91;4923953;29;741;-80
2021/09/13 11:26:37;;;;;;;;;;;;;;;22.18;28.30;97712.66;4923379;29;632;-80
2021/09/13 11:29:09;;;;;;;;;;;;;;;22.35;27.93;97709.19;4924376;29;1117;-80
2021/09/13 11:31:38;;;;;;;;;;;;;;;22.28;27.82;97709.44;4929419;29;995;-80
2021/09/13 11:34:24;;;;;;;;;;;;;;;22.16;28.21;97715.91;4929999;29;907;-80
2021/09/13 11:37:03;;;;;;;;;;;;;;;22.12;27.99;97720.91;4923733;29;1196;-80
2021/09/13 11:39:29;;;;;;;;;;;;;;;22.12;28.08;97718.06;4929639;29;719;-80
2021/09/13 11:42:08;;;;;;;;;;;;;;;22.06;28.17;97711.38;4929370;29;1165;-80
2021/09/13 11:44:38;;;;;;;;;;;;;;;22.12;27.82;97708.78;4929497;29;558;-81
2021/09/13 11:47:06;;;;;;;;;;;;;;;22.30;27.67;97704.09;4913593;29;1911;-80
2021/09/13 11:49:41;;;;;;;;;;;;;;;22.25;27.56;97701.84;4929403;29;990;-80
2021/09/13 11:52:08;;;;;;;;;;;;;;;22.35;27.24;97700.69;4929441;29;971;-80
2021/09/13 11:54:40;;;;;;;;;;;;;;;22.44;27.49;97690.69;4929738;29;855;-80
2021/09/13 11:57:26;;;;;;;;;;;;;;;22.22;27.40;97702.75;4930183;29;616;-80
2021/09/13 11:59:55;;;;;;;;;;;;;;;22.19;27.72;97689.50;4930080;29;860;-81
2021/09/13 12:02:22;;;;;;;;;;;;;;;22.15;27.81;97691.66;4929680;29;955;-80
2021/09/13 12:04:47;;;;;;;;;;;;;;;22.12;27.73;97697.44;4929164;29;874;-80
2021/09/13 12:07:13;;;;;;;;;;;;;;;22.16;27.45;97693.25;4929299;29;1891;-80
2021/09/13 12:09:42;;;;;;;;;;;;;;;22.23;27.37;97687.34;4913338;29;797;-80
2021/09/13 12:12:08;;;;;;;;;;;;;;;22.21;27.33;97701.16;4928652;29;880;-80
2021/09/13 12:14:34;;;;;;;;;;;;;;;22.14;27.53;97684.41;4929458;29;856;-81
2021/09/13 12:17:03;;;;;;;;;;;;;;;22.10;27.76;97684.53;4913080;29;909;-80
2021/09/13 12:19:28;;;;;;;;;;;;;;;22.20;27.28;97682.59;4928933;29;1001;-80
2021/09/13 12:22:00;;;;;;;;;;;;;;;22.18;27.48;97681.47;4929857;29;995;-80
2021/09/13 12:24:26;;;;;;;;;;;;;;;22.10;27.38;97683.72;4929332;29;757;-80
2021/09/13 12:26:52;;;;;;;;;;;;;;;21.98;27.51;97670.38;4929077;29;1903;-79
2021/09/13 12:29:18;;;;;;;;;;;;;;;22.14;27.55;97683.63;4929760;29;656;-80
2021/09/13 12:31:43;;;;;;;;;;;;;;;22.16;27.58;97681.91;4929530;29;962;-80
2021/09/13 12:34:09;;;;;;;;;;;;;;;22.14;27.39;97675.91;4928918;29;931;-80
2021/09/13 12:36:35;;;;;;;;;;;;;;;22.20;27.55;97671.25;4929683;29;1081;-81
2021/09/13 12:39:00;;;;;;;;;;;;;;;22.31;27.21;97671.66;4929077;29;735;-80
2021/09/13 12:41:32;;;;;;;;;;;;;;;22.32;27.11;97673.25;4926946;29;1406;-80
2021/09/13 12:43:58;;;;;;;;;;;;;;;22.14;27.54;97678.75;4926640;29;1190;-80
2021/09/13 12:46:23;;;;;;;;;;;;;;;22.02;27.72;97677.50;4926363;29;982;-80
2021/09/13 12:48:49;;;;;;;;;;;;;;;22.11;27.64;97671.16;4925573;29;1906;-80
2021/09/13 12:51:21;;;;;;;;;;;;;;;22.20;27.62;97665.59;4926641;29;954;-80
2021/09/13 12:53:53;;;;;;;;;;;;;;;22.22;27.20;97663.06;4926026;29;683;-81
2021/09/13 12:56:19;;;;;;;;;;;;;;;22.01;27.86;97666.59;4925933;29;636;-80
2021/09/13 12:58:44;;;;;;;;;;;;;;;22.07;27.21;97656.28;4909749;29;883;-80
2021/09/13 13:01:29;;;;;;;;;;;;;;;22.08;27.59;97663.56;4925552;29;896;-80
2021/09/13 13:03:58;;;;;;;;;;;;;;;22.22;27.30;97663.06;4926471;29;882;-80
2021/09/13 13:06:23;;;;;;;;;;;;;;;22.11;27.29;97662.66;4925680;29;654;-80
2021/09/13 13:08:49;;;;;;;;;;;;;;;21.95;27.46;97659.94;4925516;29;1904;-80
2021/09/13 13:11:15;;;;;;;;;;;;;;;22.04;27.40;97669.34;4926329;29;693;-80
2021/09/13 13:13:40;;;;;;;;;;;;;;;22.03;27.37;97658.47;4926147;29;752;-80
2021/09/13 13:16:06;;;;;;;;;;;;;;;21.99;27.50;97658.56;4909584;29;1027;-80
2021/09/13 13:18:31;;;;;;;;;;;;;;;22.06;27.14;97661.16;4925300;29;999;-80
2021/09/13 13:20:57;;;;;;;;;;;;;;;21.97;27.26;97646.13;4925360;29;899;-80
2021/09/13 13:23:25;;;;;;;;;;;;;;;22.03;27.40;97652.81;4925348;29;696;-81